Overview Statistics Trail Chart Weather Telemetry Raw packets
 

This is the latest recevied telemetry packets stored in our database for station/object IZ5YYF-12. If no packets are shown the sender has not sent any telemetry packets the latest 10 day(s).

Telemetry packets is used to share measurements like repeteater parameters, battery voltage, radiation readings (or any other measurements).

<< 1 2 3 4 >>
Time Press* Temp.in* Hum* QNH* Temp.out*
1788566581 976.5 hPa 31.3 C deg 33.1 % 1022.7 hPa 0 C deg
1788566483 976.5 hPa 31.3 C deg 33.1 % 1022.7 hPa 0 C deg
1788564673 976.6 hPa 31.5 C deg 32.3 % 1022.7 hPa 0 C deg
1788562856 976.8 hPa 31.8 C deg 30.6 % 1022.8 hPa 0 C deg
1788559267 976.8 hPa 32.5 C deg 27.1 % 1022.8 hPa 0 C deg
1788559223 976.8 hPa 32.5 C deg 27.1 % 1022.8 hPa 0 C deg
1788557421 976.9 hPa 32.7 C deg 27.6 % 1022.8 hPa 0 C deg
1788557403 976.9 hPa 32.7 C deg 27.6 % 1022.8 hPa 0 C deg
1788555623 977 hPa 33 C deg 27.6 % 1022.9 hPa 0 C deg
1788553804 976.9 hPa 33.1 C deg 27.3 % 1022.8 hPa 0 C deg
1788551970 976.9 hPa 33.5 C deg 27.1 % 1022.7 hPa 0 C deg
1788550250 976.9 hPa 34.1 C deg 26.3 % 1022.6 hPa 0 C deg
1788550145 976.9 hPa 34.1 C deg 26.3 % 1022.6 hPa 0 C deg
1788548341 976.8 hPa 34.6 C deg 26 % 1022.4 hPa 0 C deg
1788548331 976.8 hPa 34.6 C deg 26 % 1022.4 hPa 0 C deg
1788546541 976.4 hPa 35 C deg 25.4 % 1021.9 hPa 0 C deg
1788546509 976.4 hPa 35 C deg 25.4 % 1021.9 hPa 0 C deg
1788544714 975.9 hPa 35.5 C deg 25.4 % 1021.4 hPa 0 C deg
1788543049 975.8 hPa 36.1 C deg 25.6 % 1021.1 hPa 0 C deg
1788542886 975.8 hPa 36.1 C deg 25.6 % 1021.1 hPa 0 C deg
1788539251 975.7 hPa 37.7 C deg 24 % 1020.8 hPa 0 C deg
1788537440 975.8 hPa 37.9 C deg 20.9 % 1020.9 hPa 0 C deg
1788535661 975.8 hPa 37.9 C deg 19.2 % 1020.9 hPa 0 C deg
1788535627 975.8 hPa 37.9 C deg 19.2 % 1020.9 hPa 0 C deg
1788532003 975.9 hPa 38.3 C deg 17.4 % 1021 hPa 0 C deg
*Used Equation Coefficients:
Press: 0, 1, 0
Temp.in: 0, 1, 0
Hum: 0, 1, 0
QNH: 0, 1, 0
Temp.out: 0, 1, 0

  • The parameter names for the analog channels will be Value1, Value2, Value3 (up to Value5) if station has not sent a PARAM-packet that specifies the parameter names for each analog channel.
  • Each analog value is a decimal number between 000 and 255 (according to APRS specifications). The receiver use the telemetry equation coefficientsto to restore the original sensor values. If no EQNS-packet with equation coefficients is sent we will show the values as is (this corresponds to the equation coefficients a=0, b=1 and c=0).
    The sent equation coefficients is used in the equation: a * value2 + b * value + c.
  • The units for the analog values will not be shown if station has not sent a UNIT-packet specifying what unit's to use.
  • The parameter names for the digital bits will be Bit1, Bit2, Bit3 (up to Bit8) if station has not sent a PARAM-packet that specifies the parameter names for each digital bit.
  • All bit labels will be named "On" if station has not sent a UNIT-packet that specifies the label of each bit.
  • A bit is considered to be On when the bit is 1 if station has not sent a BITS-packet that specifies another "Bit sense" (a BITS-packet specify the state of the bits that match the BIT labels)